Time;durP1;ratioP1;P1;durP2;ratioP2;P2;SDS_P1;SDS_P2;PMS_P1;PMS_P2;Temp;Humidity;BMP_temperature;BMP_pressure;BME280_temperature;BME280_humidity;BME280_pressure;Samples;Min_cycle;Max_cycle;Signal;HPM_P1;HPM_P2
2022/03/12 00:01:07;;;;;;;12.70;4.75;;;;;;;-2.46;36.28;101865.78;5115569;28;20472;-72
2022/03/12 00:03:36;;;;;;;12.38;5.13;;;;;;;-2.52;36.61;101863.03;5115747;28;20156;-71
2022/03/12 00:06:06;;;;;;;10.00;5.10;;;;;;;-2.54;36.83;101867.34;5115153;28;20518;-72
2022/03/12 00:08:42;;;;;;;15.52;5.53;;;;;;;-2.67;37.48;101867.97;5115570;28;20555;-70
2022/03/12 00:11:12;;;;;;;14.52;5.68;;;;;;;-2.70;37.14;101862.66;5115372;28;20043;-70
2022/03/12 00:13:41;;;;;;;10.70;5.20;;;;;;;-2.73;37.07;101867.84;5115200;28;20047;-71
2022/03/12 00:16:13;;;;;;;14.38;5.50;;;;;;;-2.80;37.76;101858.13;5115129;28;20046;-70
2022/03/12 00:18:42;;;;;;;14.90;6.03;;;;;;;-2.61;36.85;101850.69;5115096;28;20043;-71
2022/03/12 00:21:13;;;;;;;13.27;6.30;;;;;;;-2.63;37.20;101859.34;5114778;28;20051;-70
2022/03/12 00:23:47;;;;;;;15.30;6.40;;;;;;;-2.93;38.38;101868.31;5115878;28;20056;-70
2022/03/12 00:26:23;;;;;;;18.25;6.93;;;;;;;-2.91;37.86;101869.22;5114815;28;20047;-72
2022/03/12 00:28:54;;;;;;;16.60;7.25;;;;;;;-2.82;37.17;101862.44;5115116;28;20081;-71
2022/03/12 00:31:22;;;;;;;14.93;7.57;;;;;;;-2.73;36.81;101863.50;5115123;28;20043;-71
2022/03/12 00:33:51;;;;;;;22.13;8.57;;;;;;;-2.67;36.80;101873.19;5115104;28;20100;-71
2022/03/12 00:36:20;;;;;;;15.50;8.25;;;;;;;-2.91;37.23;101869.22;5114931;28;20075;-71
2022/03/12 00:38:52;;;;;;;19.40;8.90;;;;;;;-2.90;37.50;101873.59;5114963;28;20043;-70
2022/03/12 00:41:20;;;;;;;20.25;8.40;;;;;;;-2.76;37.41;101880.84;5114887;28;20868;-71
2022/03/12 00:43:48;;;;;;;21.25;9.13;;;;;;;-3.02;38.35;101886.41;5097030;28;20047;-72
2022/03/12 00:46:16;;;;;;;19.73;9.75;;;;;;;-3.16;39.36;101887.84;5113460;28;20040;-72
2022/03/12 00:48:45;;;;;;;21.50;9.85;;;;;;;-3.21;40.14;101886.84;5114505;28;20040;-72
2022/03/12 00:51:13;;;;;;;21.60;9.63;;;;;;;-3.03;40.53;101882.03;5114505;28;20047;-72
2022/03/12 00:53:43;;;;;;;24.52;10.98;;;;;;;-2.84;41.03;101877.19;5114731;28;20036;-72
2022/03/12 00:56:13;;;;;;;22.38;10.75;;;;;;;-2.76;41.17;101878.25;5096579;28;20419;-71
2022/03/12 00:58:45;;;;;;;24.50;11.57;;;;;;;-3.01;41.71;101877.72;5114506;28;20156;-70
2022/03/12 01:01:14;;;;;;;22.08;11.32;;;;;;;-3.12;42.52;101879.22;5114409;28;20047;-72
2022/03/12 01:03:43;;;;;;;21.83;10.73;;;;;;;-2.97;42.65;101871.75;5114638;28;20054;-72
2022/03/12 01:06:14;;;;;;;25.67;12.13;;;;;;;-2.89;43.27;101875.38;5114217;28;20469;-72
2022/03/12 01:08:42;;;;;;;23.60;12.15;;;;;;;-2.76;43.18;101867.78;5114510;28;20044;-71
2022/03/12 01:11:13;;;;;;;27.30;11.95;;;;;;;-2.93;43.45;101870.06;5113715;28;20052;-72
2022/03/12 01:13:42;;;;;;;24.20;12.07;;;;;;;-3.00;43.93;101874.25;5114281;28;20097;-72
2022/03/12 01:16:10;;;;;;;25.60;11.52;;;;;;;-3.19;43.98;101883.44;5114071;28;20125;-72
2022/03/12 01:18:40;;;;;;;29.02;11.98;;;;;;;-3.46;44.67;101872.41;5114208;28;20418;-72
2022/03/12 01:21:10;;;;;;;25.85;12.10;;;;;;;-3.50;45.21;101878.38;5113845;28;20040;-72
2022/03/12 01:23:39;;;;;;;29.83;12.57;;;;;;;-3.34;44.81;101879.63;5114147;28;20105;-71
2022/03/12 01:26:07;;;;;;;29.67;12.93;;;;;;;-3.50;45.42;101887.09;5113872;28;20043;-72
2022/03/12 01:28:37;;;;;;;24.58;12.20;;;;;;;-3.50;45.54;101889.69;5114211;28;20477;-71
2022/03/12 01:31:05;;;;;;;26.02;11.95;;;;;;;-3.12;44.92;101888.78;5113598;28;20064;-71
2022/03/12 01:33:34;;;;;;;22.15;11.77;;;;;;;-2.95;44.45;101890.91;5113769;28;20426;-71
2022/03/12 01:36:05;;;;;;;25.65;12.82;;;;;;;-3.11;44.76;101886.22;5113690;28;20052;-78
2022/03/12 01:38:35;;;;;;;25.67;11.30;;;;;;;-3.19;44.90;101883.44;5114052;28;20044;-70
2022/03/12 01:41:06;;;;;;;23.75;11.25;;;;;;;-3.26;44.92;101885.91;5113924;28;20039;-79
2022/03/12 01:43:38;;;;;;;22.67;10.95;;;;;;;-3.22;44.82;101887.72;5113854;28;20050;-71
2022/03/12 01:46:11;;;;;;;23.92;10.65;;;;;;;-3.52;45.02;101878.34;5113599;28;20043;-69
2022/03/12 01:48:46;;;;;;;21.55;10.23;;;;;;;-3.52;44.83;101893.13;5113834;28;20046;-70
2022/03/12 01:51:14;;;;;;;22.88;10.38;;;;;;;-3.55;45.26;101888.72;5113241;28;20050;-71
2022/03/12 01:53:43;;;;;;;23.60;10.18;;;;;;;-3.62;45.22;101883.31;5113362;28;20047;-71
2022/03/12 01:56:11;;;;;;;22.77;10.73;;;;;;;-3.64;45.22;101882.41;5113066;28;20485;-71
2022/03/12 01:58:46;;;;;;;21.17;10.60;;;;;;;-3.73;45.99;101875.25;5113122;28;20048;-71
2022/03/12 02:01:15;;;;;;;21.88;10.48;;;;;;;-3.77;46.20;101886.44;5113459;28;20037;-71
2022/03/12 02:03:46;;;;;;;23.88;11.38;;;;;;;-3.73;46.01;101884.78;5113625;28;20040;-71
2022/03/12 02:06:16;;;;;;;24.90;11.73;;;;;;;-3.61;45.94;101877.25;5113391;28;20062;-71
2022/03/12 02:08:47;;;;;;;20.45;10.65;;;;;;;-3.80;46.58;101883.75;5113346;28;20046;-72
2022/03/12 02:11:27;;;;;;;22.45;10.77;;;;;;;-3.73;46.81;101888.28;5113011;28;20457;-72
2022/03/12 02:14:00;;;;;;;23.63;10.90;;;;;;;-3.90;47.41;101880.03;5113494;28;20036;-72
2022/03/12 02:16:30;;;;;;;21.73;10.77;;;;;;;-3.93;47.71;101886.91;5113172;28;20101;-72
2022/03/12 02:19:00;;;;;;;29.15;11.77;;;;;;;-3.97;48.02;101888.56;5113627;28;20070;-72
2022/03/12 02:21:35;;;;;;;29.58;11.68;;;;;;;-4.11;48.40;101890.81;5113033;28;20046;-71
2022/03/12 02:24:08;;;;;;;19.83;10.90;;;;;;;-3.89;48.03;101891.34;5113025;28;20047;-72
2022/03/12 02:26:38;;;;;;;;;;;;;;;-4.00;48.01;101898.91;5113623;28;20056;-72
2022/03/12 02:29:09;;;;;;;24.58;10.63;;;;;;;-3.84;47.22;101900.19;5113478;28;19920;-71
2022/03/12 02:31:41;;;;;;;17.98;8.98;;;;;;;-3.74;46.36;101904.78;5113451;28;20137;-71
2022/03/12 02:34:10;;;;;;;20.23;9.50;;;;;;;-3.76;46.31;101899.53;5113126;28;20079;-71
2022/03/12 02:36:42;;;;;;;20.23;9.05;;;;;;;-3.74;46.23;101896.97;5113159;28;20069;-72
2022/03/12 02:39:11;;;;;;;20.77;9.20;;;;;;;-3.71;46.07;101891.81;5095110;28;20411;-72
2022/03/12 02:41:40;;;;;;;19.98;9.27;;;;;;;-3.74;46.32;101902.16;5113279;28;20035;-72
2022/03/12 02:44:16;;;;;;;18.65;9.18;;;;;;;-3.91;46.55;101893.94;5113047;28;20046;-76
2022/03/12 02:47:11;;;;;;;19.65;8.98;;;;;;;-3.73;45.77;101893.50;5113270;28;20115;-72
2022/03/12 02:49:42;;;;;;;22.52;9.27;;;;;;;-3.93;46.99;101910.38;5113437;28;20402;-72
2022/03/12 02:52:10;;;;;;;20.15;9.27;;;;;;;-4.03;47.32;101910.16;5113073;28;20060;-72
2022/03/12 02:54:40;;;;;;;20.67;9.35;;;;;;;-4.00;47.29;101903.25;5113342;28;20046;-71
2022/03/12 02:57:09;;;;;;;22.67;9.48;;;;;;;-3.97;47.14;101901.59;5113007;28;20093;-77
2022/03/12 02:59:38;;;;;;;17.00;8.55;;;;;;;-4.06;47.18;101902.22;5113157;28;20050;-71
2022/03/12 03:02:08;;;;;;;20.40;9.30;;;;;;;-4.10;47.29;101900.41;5112865;28;20118;-73
2022/03/12 03:04:40;;;;;;;18.27;9.48;;;;;;;-3.86;46.91;101901.84;5113299;28;20405;-73
2022/03/12 03:07:10;;;;;;;19.92;9.60;;;;;;;-4.01;47.39;101909.31;5113044;28;20036;-75
2022/03/12 03:09:40;;;;;;;20.48;8.80;;;;;;;-3.97;47.49;101908.53;5113670;28;20519;-74
2022/03/12 03:12:11;;;;;;;20.08;9.43;;;;;;;-4.14;48.39;101906.38;5116745;28;20047;-73
2022/03/12 03:14:47;;;;;;;17.98;9.20;;;;;;;-4.18;48.33;101914.94;5116932;28;20039;-73
2022/03/12 03:17:18;;;;;;;16.95;8.38;;;;;;;-4.08;47.97;101913.47;5116108;28;20055;-70
2022/03/12 03:19:47;;;;;;;18.15;8.82;;;;;;;-4.11;48.11;101910.78;5116909;28;20043;-70
2022/03/12 03:22:15;;;;;;;20.38;9.52;;;;;;;-4.17;48.24;101908.91;5116212;28;20416;-70
2022/03/12 03:24:44;;;;;;;19.60;8.85;;;;;;;-4.14;48.09;101911.59;5116703;28;20388;-69
2022/03/12 03:27:12;;;;;;;21.33;9.88;;;;;;;-4.10;48.14;101913.44;5116159;28;20056;-70
2022/03/12 03:29:41;;;;;;;21.60;9.15;;;;;;;-4.19;48.61;101907.09;5116269;28;20502;-69
2022/03/12 03:32:09;;;;;;;19.80;8.57;;;;;;;-4.19;48.46;101910.59;5116199;28;20485;-72
2022/03/12 03:34:39;;;;;;;19.13;8.73;;;;;;;-4.19;48.71;101913.19;5116381;28;20094;-72
2022/03/12 03:37:08;;;;;;;17.55;8.77;;;;;;;-4.34;49.31;101908.47;5116336;28;20059;-72
2022/03/12 03:39:36;;;;;;;20.10;9.05;;;;;;;-4.35;49.59;101917.09;5115990;28;20063;-72
2022/03/12 03:42:07;;;;;;;19.73;9.15;;;;;;;-4.27;49.04;101913.81;5116229;28;20036;-72
2022/03/12 03:44:35;;;;;;;18.23;8.55;;;;;;;-4.45;49.93;101920.28;5115892;28;20492;-72
2022/03/12 03:47:06;;;;;;;19.20;8.32;;;;;;;-4.40;49.87;101915.22;5115815;28;20040;-71
2022/03/12 03:49:34;;;;;;;19.17;8.48;;;;;;;-4.45;49.71;101914.22;5097552;28;20062;-71
2022/03/12 03:52:03;;;;;;;21.35;8.52;;;;;;;-4.52;49.96;101920.13;5116017;28;20488;-71
2022/03/12 03:54:32;;;;;;;17.60;8.10;;;;;;;-4.49;49.93;101923.66;5115517;28;20040;-72
2022/03/12 03:57:00;;;;;;;18.88;8.73;;;;;;;-4.49;49.79;101917.59;5115850;28;20043;-71
2022/03/12 03:59:30;;;;;;;18.77;8.85;;;;;;;-4.52;49.50;101922.72;5115074;28;20044;-71
2022/03/12 04:01:58;;;;;;;15.77;8.63;;;;;;;-4.40;48.75;101912.63;5115532;28;20046;-70
2022/03/12 04:04:31;;;;;;;16.88;8.15;;;;;;;-4.43;48.97;101912.56;5115311;28;20050;-71
2022/03/12 04:07:00;;;;;;;15.18;7.47;;;;;;;-4.23;48.85;101921.78;5115786;28;20122;-70
2022/03/12 04:09:29;;;;;;;18.25;8.75;;;;;;;-4.27;49.23;101919.91;5115373;28;20063;-71
2022/03/12 04:11:57;;;;;;;18.70;8.57;;;;;;;-4.39;49.59;101904.84;5115605;28;20047;-71
2022/03/12 04:14:26;;;;;;;20.52;8.30;;;;;;;-4.52;49.99;101913.19;5115096;28;20075;-71
2022/03/12 04:16:58;;;;;;;21.42;8.88;;;;;;;-4.47;50.27;101918.50;5115377;28;20040;-71
2022/03/12 04:19:28;;;;;;;15.93;8.75;;;;;;;-4.44;50.13;101921.19;5115304;28;20170;-72
2022/03/12 04:21:57;;;;;;;19.65;9.40;;;;;;;-4.67;50.75;101916.22;5113666;28;20046;-72
2022/03/12 04:24:26;;;;;;;19.55;8.75;;;;;;;-4.59;50.92;101906.03;5115127;28;20074;-71
2022/03/12 04:26:55;;;;;;;15.98;8.15;;;;;;;-4.53;51.07;101915.75;5114861;28;20055;-71
2022/03/12 04:29:23;;;;;;;18.25;8.15;;;;;;;-4.54;51.08;101914.84;5115065;28;20407;-71
2022/03/12 04:31:53;;;;;;;16.50;8.38;;;;;;;-4.52;51.24;101913.19;5115400;28;20058;-71
2022/03/12 04:34:23;;;;;;;17.05;7.78;;;;;;;-4.56;51.33;101905.22;5114872;28;20039;-72
2022/03/12 04:36:52;;;;;;;18.33;8.07;;;;;;;-4.59;51.38;101915.56;5114842;28;20054;-72
2022/03/12 04:39:20;;;;;;;19.67;8.90;;;;;;;-4.64;51.58;101916.31;5114572;28;20044;-71
2022/03/12 04:41:49;;;;;;;17.90;7.70;;;;;;;-4.52;51.23;101914.91;5114883;28;20131;-71
2022/03/12 04:44:17;;;;;;;20.10;8.50;;;;;;;-4.62;51.69;101917.25;5096485;28;20066;-73
2022/03/12 04:46:45;;;;;;;18.92;9.35;;;;;;;-4.70;51.89;101923.97;5114923;28;20067;-72
2022/03/12 04:49:14;;;;;;;17.67;8.32;;;;;;;-4.38;51.01;101924.84;5114911;28;20108;-71
2022/03/12 04:51:46;;;;;;;15.95;7.93;;;;;;;-4.43;50.76;101933.38;5114813;28;20480;-71
2022/03/12 04:54:15;;;;;;;19.48;8.05;;;;;;;-4.42;51.00;101924.72;5114500;28;20050;-71
2022/03/12 04:56:44;;;;;;;19.88;9.15;;;;;;;-4.50;51.16;101921.03;5114604;28;20130;-71
2022/03/12 04:59:14;;;;;;;18.60;8.20;;;;;;;-4.48;51.12;101924.56;5114507;28;20048;-72
2022/03/12 05:01:42;;;;;;;18.85;8.25;;;;;;;-4.43;51.24;101928.19;5114201;28;20046;-71
2022/03/12 05:04:10;;;;;;;17.15;7.78;;;;;;;-4.46;51.35;101922.88;5114317;28;20118;-71
2022/03/12 05:06:43;;;;;;;16.73;7.78;;;;;;;-4.66;51.88;101928.41;5114199;28;20039;-71
2022/03/12 05:09:12;;;;;;;18.15;8.18;;;;;;;-4.54;51.32;101926.97;5114226;28;20043;-72
2022/03/12 05:11:41;;;;;;;17.40;8.30;;;;;;;-4.64;51.71;101931.03;5114087;28;20043;-71
2022/03/12 05:14:10;;;;;;;15.15;7.35;;;;;;;-4.49;51.38;101934.09;5114447;28;20040;-71
2022/03/12 05:16:39;;;;;;;20.48;7.78;;;;;;;-4.41;51.27;101929.09;5114018;28;20047;-70
2022/03/12 05:19:07;;;;;;;16.92;8.00;;;;;;;-4.39;51.31;101930.00;5114300;28;20419;-72
2022/03/12 05:21:35;;;;;;;15.20;7.72;;;;;;;-4.49;51.87;101936.69;5113855;28;20081;-71
2022/03/12 05:24:04;;;;;;;18.05;8.25;;;;;;;-4.42;51.90;101937.75;5114379;28;20036;-69
2022/03/12 05:26:34;;;;;;;16.88;7.35;;;;;;;-4.51;52.54;101940.97;5114410;28;20055;-70
2022/03/12 05:29:02;;;;;;;16.20;8.23;;;;;;;-4.45;52.21;101942.84;5114559;28;20477;-70
2022/03/12 05:31:30;;;;;;;16.85;8.30;;;;;;;-4.44;52.19;101937.72;5114253;28;20101;-70
2022/03/12 05:33:58;;;;;;;16.38;8.05;;;;;;;-4.38;52.04;101943.06;5113791;28;20093;-70
2022/03/12 05:36:26;;;;;;;19.83;8.00;;;;;;;-4.24;51.74;101935.66;5113887;28;20039;-70
2022/03/12 05:38:55;;;;;;;18.10;7.63;;;;;;;-4.27;51.68;101934.66;5114050;28;20050;-70
2022/03/12 05:41:23;;;;;;;18.40;8.82;;;;;;;-4.19;51.43;101934.03;5113995;28;20397;-71
2022/03/12 05:43:54;;;;;;;15.15;7.53;;;;;;;-4.11;51.09;101942.06;5113817;28;20097;-70
2022/03/12 05:46:22;;;;;;;17.88;7.60;;;;;;;-4.20;51.25;101932.28;5113863;28;20048;-71
2022/03/12 05:48:51;;;;;;;14.27;7.15;;;;;;;-4.05;50.43;101937.91;5114097;28;20040;-69
2022/03/12 05:51:20;;;;;;;15.73;7.32;;;;;;;-4.04;50.11;101938.78;5114063;28;20118;-71
2022/03/12 05:53:49;;;;;;;17.38;7.05;;;;;;;-4.01;50.21;101944.06;5096034;28;20408;-71
2022/03/12 05:56:17;;;;;;;15.88;7.47;;;;;;;-4.17;50.60;101947.97;5113857;28;20071;-70
2022/03/12 05:58:45;;;;;;;14.70;7.00;;;;;;;-4.11;49.85;101942.06;5113091;28;20196;-71
2022/03/12 06:01:15;;;;;;;16.85;6.85;;;;;;;-3.92;49.22;101946.03;5113697;28;20050;-72
2022/03/12 06:03:44;;;;;;;14.60;6.90;;;;;;;-3.75;48.69;101942.13;5113194;28;20036;-71
2022/03/12 06:06:14;;;;;;;12.57;6.38;;;;;;;-3.54;48.10;101936.56;5113570;28;20044;-71
2022/03/12 06:08:42;;;;;;;13.70;6.78;;;;;;;-3.38;47.73;101943.88;5113205;28;20289;-71
2022/03/12 06:11:10;;;;;;;12.00;6.47;;;;;;;-3.31;47.33;101943.19;5113541;28;20039;-71
2022/03/12 06:13:43;;;;;;;16.13;6.60;;;;;;;-3.28;47.02;101944.97;5113278;28;20054;-71
2022/03/12 06:16:12;;;;;;;16.05;7.32;;;;;;;-3.16;47.38;101937.44;5113633;28;20468;-71
2022/03/12 06:18:42;;;;;;;13.60;6.70;;;;;;;-3.03;47.33;101938.59;5113374;28;20051;-70
2022/03/12 06:21:11;;;;;;;14.35;7.18;;;;;;;-3.00;47.11;101942.16;5113429;28;20411;-70
2022/03/12 06:23:39;;;;;;;14.38;7.15;;;;;;;-2.97;47.08;101942.22;5112956;28;20384;-69
2022/03/12 06:26:14;;;;;;;15.13;7.20;;;;;;;-2.94;46.93;101944.91;5112992;28;20122;-70
2022/03/12 06:28:44;;;;;;;16.27;7.32;;;;;;;-2.83;46.79;101947.75;5113158;28;20093;-70
2022/03/12 06:31:14;;;;;;;17.25;7.85;;;;;;;-2.77;46.70;101949.63;5112997;28;20058;-72
2022/03/12 06:33:45;;;;;;;14.25;7.97;;;;;;;-2.50;45.56;101955.41;5112863;28;20143;-71
2022/03/12 06:36:14;;;;;;;18.63;8.30;;;;;;;-2.44;45.21;101954.63;5113563;28;20088;-72
2022/03/12 06:38:43;;;;;;;15.93;7.55;;;;;;;-2.53;45.37;101941.38;5112895;28;20048;-72
2022/03/12 06:41:11;;;;;;;17.00;7.43;;;;;;;-2.35;44.99;101955.69;5095265;28;20044;-71
2022/03/12 06:43:42;;;;;;;17.63;7.30;;;;;;;-2.46;44.89;101961.56;5112782;28;20043;-70
2022/03/12 06:46:15;;;;;;;13.93;7.18;;;;;;;-2.32;45.29;101966.25;5116950;28;20110;-71
2022/03/12 06:48:46;;;;;;;16.90;7.63;;;;;;;-2.03;44.61;101963.25;5099105;28;20083;-71
2022/03/12 06:51:17;;;;;;;14.50;6.93;;;;;;;-2.06;44.42;101964.09;5117079;28;20044;-71
2022/03/12 06:53:45;;;;;;;13.88;6.68;;;;;;;-1.91;43.31;101971.34;5098798;28;20469;-71
2022/03/12 06:56:14;;;;;;;12.07;6.38;;;;;;;-1.87;43.95;101965.31;5116800;28;20043;-72
2022/03/12 06:58:42;;;;;;;14.60;6.93;;;;;;;-1.85;43.74;101968.84;5116344;28;20043;-70
2022/03/12 07:01:10;;;;;;;13.07;7.28;;;;;;;-1.66;43.13;101975.28;5116843;28;20044;-70
2022/03/12 07:03:39;;;;;;;17.02;7.40;;;;;;;-1.59;42.90;101978.88;5116531;28;20541;-71
2022/03/12 07:06:09;;;;;;;14.70;6.88;;;;;;;-1.47;42.22;101973.84;5116795;28;20050;-71
2022/03/12 07:08:40;;;;;;;13.25;6.60;;;;;;;-1.41;41.84;101975.69;5116458;28;20156;-70
2022/03/12 07:11:09;;;;;;;12.80;5.75;;;;;;;-1.31;41.26;101973.25;5116801;28;20075;-71
2022/03/12 07:13:37;;;;;;;12.65;6.45;;;;;;;-1.41;41.82;101971.34;5116002;28;20058;-71
2022/03/12 07:16:06;;;;;;;12.52;6.30;;;;;;;-1.33;41.80;101974.97;5116319;28;20105;-72
2022/03/12 07:18:34;;;;;;;11.93;5.82;;;;;;;-1.12;41.12;101979.66;5116032;28;20067;-70
2022/03/12 07:21:04;;;;;;;11.27;5.28;;;;;;;-0.97;40.57;101978.97;5116872;28;20047;-70
2022/03/12 07:23:34;;;;;;;9.70;5.40;;;;;;;-0.88;40.62;101973.88;5115876;28;20093;-69
2022/03/12 07:26:02;;;;;;;8.77;3.97;;;;;;;-0.63;39.22;101964.63;5115971;28;20131;-69
2022/03/12 07:28:32;;;;;;;7.35;3.70;;;;;;;-0.40;38.40;101967.50;5097654;28;20077;-71
2022/03/12 07:31:01;;;;;;;6.80;3.75;;;;;;;-0.36;38.31;101970.19;5116599;28;20035;-71
2022/03/12 07:33:29;;;;;;;7.00;3.53;;;;;;;-0.31;38.36;101965.88;5116322;28;20047;-73
2022/03/12 07:35:57;;;;;;;8.52;3.80;;;;;;;-0.27;38.17;101966.81;5117538;28;20047;-68
2022/03/12 07:38:26;;;;;;;9.00;4.13;;;;;;;-0.27;38.25;101958.94;5117093;28;20092;-69
2022/03/12 07:40:56;;;;;;;9.05;3.47;;;;;;;-0.17;37.82;101955.56;5115625;28;20096;-71
2022/03/12 07:43:24;;;;;;;7.85;4.13;;;;;;;-0.19;37.76;101962.53;5116014;28;20127;-72
2022/03/12 07:45:52;;;;;;;8.13;4.38;;;;;;;-0.10;37.80;101962.59;5115461;28;20043;-72
2022/03/12 07:48:21;;;;;;;10.50;3.97;;;;;;;0.01;37.68;101957.50;5116175;28;20044;-73
2022/03/12 07:51:06;;;;;;;7.57;3.75;;;;;;;-0.02;37.68;101950.44;5116036;28;20051;-67
2022/03/12 07:53:36;;;;;;;10.73;4.20;;;;;;;0.18;37.54;101950.66;5115698;28;20050;-70
2022/03/12 07:56:08;;;;;;;10.15;4.20;;;;;;;0.13;37.27;101948.88;5115308;28;20036;-69
2022/03/12 07:58:37;;;;;;;7.85;3.72;;;;;;;0.28;37.18;101946.34;5115663;28;20439;-69
2022/03/12 08:01:05;;;;;;;10.90;4.10;;;;;;;0.35;36.83;101949.94;5115711;28;20050;-68
2022/03/12 08:03:35;;;;;;;9.15;4.07;;;;;;;0.30;36.54;101951.66;5115242;28;20043;-70
2022/03/12 08:06:05;;;;;;;8.75;3.72;;;;;;;0.42;36.55;101941.25;5116033;28;20048;-72
2022/03/12 08:08:33;;;;;;;7.88;3.85;;;;;;;0.34;36.76;101949.06;5115433;28;20464;-77
2022/03/12 08:13:49;;;;;;;8.05;3.97;;;;;;;0.47;36.90;101953.53;5115119;28;20481;-72
2022/03/12 08:16:18;;;;;;;8.90;3.97;;;;;;;0.56;36.42;101953.59;5115178;28;20500;-72
2022/03/12 08:18:46;;;;;;;8.93;3.83;;;;;;;0.53;36.08;101956.22;5114761;28;20118;-73
2022/03/12 08:21:15;;;;;;;9.02;4.38;;;;;;;0.72;35.48;101948.47;5115653;28;20071;-72
2022/03/12 08:23:45;;;;;;;9.75;3.95;;;;;;;0.75;34.74;101945.88;5115220;28;20386;-72
2022/03/12 08:26:13;;;;;;;8.70;3.70;;;;;;;0.76;34.55;101947.63;5115220;28;20044;-69
2022/03/12 08:28:42;;;;;;;8.35;3.90;;;;;;;0.73;34.19;101958.09;5115095;28;20071;-68
2022/03/12 08:31:12;;;;;;;10.48;4.68;;;;;;;0.67;33.90;101947.53;5115219;28;20067;-70
2022/03/12 08:33:41;;;;;;;8.02;4.10;;;;;;;0.84;33.92;101951.19;5115084;28;20039;-70
2022/03/12 08:36:11;;;;;;;7.45;3.83;;;;;;;0.90;33.89;101945.97;5115212;28;20174;-70
2022/03/12 08:38:40;;;;;;;9.68;4.35;;;;;;;0.85;33.74;101942.44;5114935;28;20422;-69
2022/03/12 08:41:16;;;;;;;9.25;4.40;;;;;;;0.92;33.28;101941.59;5114890;28;20068;-71
2022/03/12 08:43:44;;;;;;;11.13;4.55;;;;;;;0.88;32.60;101938.97;5114453;28;20056;-69
2022/03/12 08:46:14;;;;;;;11.73;4.82;;;;;;;0.89;32.83;101944.22;5115084;28;20143;-71
2022/03/12 08:48:49;;;;;;;11.27;4.72;;;;;;;1.15;32.44;101953.13;5114661;28;20048;-68
2022/03/12 08:51:17;;;;;;;10.32;4.63;;;;;;;1.04;32.58;101949.56;5114761;28;20435;-69
2022/03/12 08:53:45;;;;;;;10.13;4.47;;;;;;;1.09;32.48;101942.59;5114280;28;20032;-72
2022/03/12 08:56:14;;;;;;;9.73;4.85;;;;;;;1.26;32.48;101939.19;5114245;28;20044;-69
2022/03/12 08:58:42;;;;;;;9.20;4.40;;;;;;;1.18;31.89;101936.50;5113395;28;20065;-67
2022/03/12 09:01:12;;;;;;;12.57;5.03;;;;;;;1.13;31.77;101946.09;5114687;28;20047;-69
2022/03/12 09:03:43;;;;;;;8.82;4.57;;;;;;;1.14;31.77;101942.59;5095838;28;20048;-67
2022/03/12 09:06:12;;;;;;;10.23;5.00;;;;;;;1.22;31.89;101938.25;5114449;28;20477;-66
2022/03/12 09:08:40;;;;;;;11.25;5.50;;;;;;;1.13;31.71;101943.47;5113472;28;20075;-68
2022/03/12 09:11:08;;;;;;;11.45;4.45;;;;;;;1.31;31.61;101938.31;5114263;28;20102;-69
2022/03/12 09:13:37;;;;;;;9.27;4.82;;;;;;;1.35;31.10;101937.47;5096541;28;20481;-68
2022/03/12 09:16:06;;;;;;;10.63;4.53;;;;;;;1.37;30.08;101924.31;5114334;28;20066;-68
2022/03/12 09:18:34;;;;;;;8.20;4.18;;;;;;;1.37;29.93;101926.97;5114025;28;20040;-68
2022/03/12 09:21:04;;;;;;;13.93;4.70;;;;;;;1.36;29.87;101922.56;5113930;28;20046;-68
2022/03/12 09:23:34;;;;;;;9.35;4.57;;;;;;;1.34;30.85;101929.56;5114344;28;20119;-68
2022/03/12 09:26:02;;;;;;;9.27;4.35;;;;;;;1.59;30.30;101927.91;5113897;28;20047;-68
2022/03/12 09:28:31;;;;;;;10.50;4.47;;;;;;;1.54;28.76;101930.50;5113860;28;20579;-68
2022/03/12 09:30:59;;;;;;;11.73;4.75;;;;;;;1.59;29.35;101923.53;5113964;28;20044;-68
2022/03/12 09:33:27;;;;;;;7.72;4.20;;;;;;;1.57;30.21;101914.75;5114153;28;20429;-68
2022/03/12 09:35:56;;;;;;;9.75;4.25;;;;;;;1.49;30.27;101915.59;5113886;28;20051;-69
2022/03/12 09:38:26;;;;;;;9.50;4.50;;;;;;;1.68;29.82;101915.66;5114081;28;20044;-68
2022/03/12 09:40:54;;;;;;;9.25;4.40;;;;;;;1.62;30.18;101913.00;5113899;28;20092;-68
2022/03/12 09:43:23;;;;;;;9.50;4.63;;;;;;;1.77;29.06;101906.91;5095990;28;20097;-68
2022/03/12 09:45:51;;;;;;;9.48;4.47;;;;;;;1.74;29.83;101914.81;5113738;28;20090;-68
2022/03/12 09:48:21;;;;;;;9.00;4.75;;;;;;;1.66;29.32;101901.63;5113886;28;20396;-68
2022/03/12 09:50:49;;;;;;;10.13;4.45;;;;;;;1.76;29.38;101914.81;5113424;28;20093;-68
2022/03/12 09:53:18;;;;;;;12.05;4.20;;;;;;;1.90;28.87;101913.06;5113749;28;20035;-69
2022/03/12 09:55:48;;;;;;;8.88;4.20;;;;;;;1.96;29.25;101921.00;5113464;28;20073;-67
2022/03/12 09:58:16;;;;;;;10.25;4.88;;;;;;;1.95;29.13;101912.22;5113463;28;20502;-69
2022/03/12 10:00:44;;;;;;;11.27;4.55;;;;;;;1.98;30.01;101909.59;5095619;28;20081;-69
2022/03/12 10:03:13;;;;;;;9.00;4.45;;;;;;;2.08;29.42;101899.06;5113664;28;20046;-69
2022/03/12 10:05:41;;;;;;;9.45;4.70;;;;;;;2.00;29.68;101897.28;5113606;28;20043;-68
2022/03/12 10:08:09;;;;;;;8.93;4.30;;;;;;;1.94;29.91;101897.31;5113672;28;20109;-69
2022/03/12 10:10:38;;;;;;;8.15;4.40;;;;;;;2.20;29.52;101899.06;5113432;28;20094;-69
2022/03/12 10:13:07;;;;;;;8.23;3.95;;;;;;;2.32;29.42;101898.19;5113377;28;20046;-69
2022/03/12 10:15:36;;;;;;;13.93;4.82;;;;;;;2.39;29.03;101892.03;5113690;28;20043;-68
2022/03/12 10:18:04;;;;;;;7.63;4.28;;;;;;;2.40;29.45;101883.25;5113379;28;20453;-68
2022/03/12 10:20:33;;;;;;;8.50;4.40;;;;;;;2.37;28.81;101899.06;5118018;28;20047;-69
2022/03/12 10:23:02;;;;;;;9.27;4.53;;;;;;;2.26;29.75;101886.78;5117292;28;20043;-69
2022/03/12 10:25:31;;;;;;;10.27;4.82;;;;;;;2.34;29.17;101888.56;5117709;28;20043;-69
2022/03/12 10:28:00;;;;;;;7.78;4.28;;;;;;;2.27;29.16;101891.16;5117511;28;20087;-69
2022/03/12 10:30:29;;;;;;;8.45;4.05;;;;;;;2.21;29.12;101880.63;5117778;28;20032;-69
2022/03/12 10:32:58;;;;;;;8.52;4.07;;;;;;;2.36;28.87;101892.06;5117753;28;20040;-68
2022/03/12 10:35:33;;;;;;;7.93;4.00;;;;;;;2.45;28.51;101881.50;5117685;28;20100;-68
2022/03/12 10:38:02;;;;;;;9.48;4.28;;;;;;;2.60;28.33;101870.94;5117354;28;20431;-69
2022/03/12 10:40:31;;;;;;;6.40;3.50;;;;;;;2.65;28.60;101869.19;5117081;28;20052;-67
2022/03/12 10:43:05;;;;;;;8.18;4.22;;;;;;;2.66;28.33;101875.34;5117321;28;20040;-68
2022/03/12 10:45:41;;;;;;;8.00;4.13;;;;;;;2.64;27.97;101867.44;5098792;28;20060;-68
2022/03/12 10:48:10;;;;;;;9.00;4.25;;;;;;;2.45;27.86;101860.44;5117163;28;20420;-68
2022/03/12 10:50:41;;;;;;;8.50;4.22;;;;;;;2.29;28.28;101859.56;5117220;28;20119;-68
2022/03/12 10:53:10;;;;;;;6.97;4.07;;;;;;;2.30;28.67;101861.31;5117252;28;20119;-69
2022/03/12 10:55:41;;;;;;;10.85;4.30;;;;;;;2.35;28.55;101863.97;5117188;28;20039;-68
2022/03/12 10:58:12;;;;;;;9.60;4.13;;;;;;;2.63;28.79;101852.50;5116934;28;20047;-68
2022/03/12 11:00:45;;;;;;;9.07;4.22;;;;;;;2.82;27.71;101850.72;5117028;28;20118;-68
2022/03/12 11:03:16;;;;;;;8.38;3.65;;;;;;;3.00;27.58;101848.03;5116795;28;20064;-68
2022/03/12 11:05:47;;;;;;;11.43;4.13;;;;;;;3.17;26.99;101851.44;5116816;28;20092;-68
2022/03/12 11:08:17;;;;;;;10.85;4.32;;;;;;;3.21;27.08;101854.09;5116994;28;20040;-68
2022/03/12 11:10:52;;;;;;;10.10;4.03;;;;;;;3.17;26.85;101840.88;5116652;28;20044;-68
2022/03/12 11:13:34;;;;;;;7.50;4.25;;;;;;;3.03;26.89;101839.22;5116863;28;20040;-68
2022/03/12 11:16:12;;;;;;;7.95;4.35;;;;;;;2.96;27.49;101834.84;5116597;28;20075;-68
2022/03/12 11:18:57;;;;;;;9.60;4.53;;;;;;;2.88;27.16;101830.47;5116877;28;20062;-69
2022/03/12 11:21:27;;;;;;;10.85;4.32;;;;;;;3.00;27.55;101824.28;5116665;28;20127;-69
2022/03/12 11:23:57;;;;;;;9.35;4.07;;;;;;;3.01;27.38;101815.50;5116547;28;20100;-67
2022/03/12 11:26:27;;;;;;;8.63;4.43;;;;;;;2.99;27.82;101819.00;5116422;28;20469;-69
2022/03/12 11:28:58;;;;;;;5.97;3.85;;;;;;;2.96;27.68;101816.38;5115765;28;20048;-69
2022/03/12 11:31:42;;;;;;;9.30;3.78;;;;;;;3.08;27.37;101816.31;5115834;28;20044;-69
2022/03/12 11:34:20;;;;;;;9.80;4.70;;;;;;;2.94;27.43;101810.25;5116394;28;20143;-69
2022/03/12 11:37:00;;;;;;;8.65;3.90;;;;;;;3.13;27.13;101804.00;5098324;28;20392;-76